createdAt,value
2022-08-09T00:01:54.990Z,101836.92
2022-08-09T00:04:35.029Z,101837.21
2022-08-09T00:07:10.509Z,101842.34
2022-08-09T00:09:40.530Z,101838.55
2022-08-09T00:12:22.356Z,101833.02
2022-08-09T00:14:56.726Z,101842.52
2022-08-09T00:18:04.645Z,101842.97
2022-08-09T00:20:16.509Z,101840.90
2022-08-09T00:22:48.274Z,101839.98
2022-08-09T00:25:23.560Z,101840.27
2022-08-09T00:28:04.107Z,101839.50
2022-08-09T00:30:34.248Z,101840.06
2022-08-09T00:33:03.789Z,101843.36
2022-08-09T00:35:43.118Z,101842.21
2022-08-09T00:38:13.119Z,101840.14
2022-08-09T00:40:53.179Z,101844.19
2022-08-09T00:44:14.428Z,101845.92
2022-08-09T00:46:28.351Z,101844.53
2022-08-09T00:49:04.021Z,101843.02
2022-08-09T00:51:54.148Z,101847.52
2022-08-09T00:54:35.261Z,101851.36
2022-08-09T00:57:10.490Z,101851.05
2022-08-09T00:59:46.702Z,101855.34
2022-08-09T01:02:21.703Z,101855.64
2022-08-09T01:04:51.330Z,101858.34
2022-08-09T01:07:20.716Z,101853.88
2022-08-09T01:10:07.747Z,101853.85
2022-08-09T01:12:38.523Z,101857.35
2022-08-09T01:15:16.620Z,101858.55
2022-08-09T01:17:47.472Z,101856.89
2022-08-09T01:20:16.919Z,101855.98
2022-08-09T01:22:48.229Z,101855.44
2022-08-09T01:25:21.941Z,101855.91
2022-08-09T01:27:51.501Z,101857.64
2022-08-09T01:30:35.296Z,101856.94
2022-08-09T01:33:06.096Z,101857.36
2022-08-09T01:35:39.541Z,101856.61
2022-08-09T01:38:15.493Z,101858.60
2022-08-09T01:40:53.119Z,101855.92
2022-08-09T01:43:50.974Z,101859.95
2022-08-09T01:46:25.251Z,101855.94
2022-08-09T01:48:56.807Z,101858.48
2022-08-09T01:51:26.337Z,101862.38
2022-08-09T01:53:57.848Z,101857.59
2022-08-09T01:56:27.667Z,101859.67
2022-08-09T01:58:57.007Z,101856.73
2022-08-09T02:01:58.588Z,101857.35
2022-08-09T02:04:15.698Z,101855.64
2022-08-09T02:07:03.267Z,101855.23
2022-08-09T02:09:41.939Z,101851.73
2022-08-09T02:12:13.428Z,101852.70
2022-08-09T02:14:51.724Z,101850.23
2022-08-09T02:17:59.968Z,101849.98
2022-08-09T02:20:10.540Z,101851.88
2022-08-09T02:22:40.030Z,101852.59
2022-08-09T02:25:09.826Z,101853.16
2022-08-09T02:28:00.584Z,101857.78
2022-08-09T02:30:34.106Z,101853.44
2022-08-09T02:33:03.759Z,101855.61
2022-08-09T02:36:02.595Z,101856.35
2022-08-09T02:38:29.718Z,101857.83
2022-08-09T02:40:59.346Z,101860.30
2022-08-09T02:43:28.816Z,101864.15
2022-08-09T02:45:58.401Z,101861.83
2022-08-09T02:48:31.131Z,101860.94
2022-08-09T02:51:01.696Z,101862.48
2022-08-09T02:53:32.009Z,101861.11
2022-08-09T02:56:03.988Z,101868.16
2022-08-09T02:58:36.379Z,101866.99
2022-08-09T03:01:08.134Z,101866.77
2022-08-09T03:04:17.476Z,101866.77
2022-08-09T03:06:29.616Z,101869.48
2022-08-09T03:08:58.939Z,101873.90
2022-08-09T03:11:30.223Z,101869.36
2022-08-09T03:14:18.274Z,101867.66
2022-08-09T03:16:48.429Z,101871.13
2022-08-09T03:19:59.454Z,101875.44
2022-08-09T03:22:12.172Z,101872.42
2022-08-09T03:25:06.285Z,101879.52
2022-08-09T03:27:47.821Z,101880.77
2022-08-09T03:30:28.122Z,101881.50
2022-08-09T03:32:58.792Z,101878.56
2022-08-09T03:36:11.346Z,101878.90
2022-08-09T03:38:28.841Z,101871.52
2022-08-09T03:40:59.868Z,101873.14
2022-08-09T03:43:31.660Z,101872.87
2022-08-09T03:46:13.626Z,101873.98
2022-08-09T03:48:51.471Z,101874.20
2022-08-09T03:51:56.727Z,101870.86
2022-08-09T03:54:11.375Z,101873.09
2022-08-09T03:56:41.709Z,101875.23
2022-08-09T03:59:17.275Z,101873.77
2022-08-09T04:01:56.619Z,101877.35
2022-08-09T04:04:32.633Z,101877.59
2022-08-09T04:07:08.218Z,101881.58
2022-08-09T04:09:41.676Z,101881.59
2022-08-09T04:12:30.203Z,101878.60
2022-08-09T04:15:11.377Z,101875.77
2022-08-09T04:17:42.429Z,101877.08
2022-08-09T04:20:13.197Z,101880.96
2022-08-09T04:22:44.451Z,101878.45
2022-08-09T04:25:14.036Z,101881.85
2022-08-09T04:27:46.731Z,101881.14
2022-08-09T04:30:20.781Z,101884.18
2022-08-09T04:32:52.815Z,101887.66
2022-08-09T04:35:23.710Z,101890.81
2022-08-09T04:37:53.294Z,101890.80
2022-08-09T04:40:36.211Z,101892.58
2022-08-09T04:43:06.104Z,101898.30
2022-08-09T04:45:53.269Z,101897.17
2022-08-09T04:48:33.142Z,101899.97
2022-08-09T04:51:03.070Z,101902.92
2022-08-09T04:53:32.383Z,101900.80
2022-08-09T04:56:03.703Z,101902.50
2022-08-09T04:58:33.986Z,101906.54
2022-08-09T05:01:03.538Z,101906.27
2022-08-09T05:03:42.360Z,101907.74
2022-08-09T05:06:25.867Z,101906.45
2022-08-09T05:09:00.363Z,101899.55
2022-08-09T05:11:35.556Z,101905.59
2022-08-09T05:14:05.857Z,101906.98
2022-08-09T05:16:43.568Z,101905.70
2022-08-09T05:19:25.971Z,101906.95
2022-08-09T05:22:01.052Z,101907.02
2022-08-09T05:24:30.323Z,101908.05
2022-08-09T05:26:59.533Z,101912.91
2022-08-09T05:29:31.173Z,101914.50
2022-08-09T05:32:01.756Z,101916.14
2022-08-09T05:34:32.485Z,101917.21
2022-08-09T05:37:05.171Z,101912.70
2022-08-09T05:39:43.410Z,101922.84
2022-08-09T05:42:21.330Z,101924.73
2022-08-09T05:45:05.376Z,101922.70
2022-08-09T05:47:34.803Z,101922.98
2022-08-09T05:50:25.547Z,101928.06
2022-08-09T05:53:04.423Z,101926.84
2022-08-09T05:55:33.668Z,101927.20
2022-08-09T05:58:02.955Z,101927.80
2022-08-09T06:00:36.663Z,101929.55
2022-08-09T06:03:10.784Z,101930.45
2022-08-09T06:05:58.239Z,101931.95
2022-08-09T06:08:29.768Z,101929.92
2022-08-09T06:11:00.799Z,101930.04
2022-08-09T06:13:34.135Z,101933.56
2022-08-09T06:16:04.718Z,101932.50
2022-08-09T06:18:34.676Z,101937.62
2022-08-09T06:21:04.205Z,101939.34
2022-08-09T06:23:58.856Z,101937.59
2022-08-09T06:26:28.538Z,101936.77
2022-08-09T06:29:01.122Z,101943.36
2022-08-09T06:31:39.364Z,101946.06
2022-08-09T06:34:26.235Z,101946.61
2022-08-09T06:37:00.111Z,101943.88
2022-08-09T06:39:48.578Z,101951.98
2022-08-09T06:42:24.886Z,101951.87
2022-08-09T06:46:04.393Z,101952.88
2022-08-09T06:48:00.642Z,101951.46
2022-08-09T06:50:31.862Z,101955.92
2022-08-09T06:53:03.084Z,101956.77
2022-08-09T06:55:33.454Z,101959.10
2022-08-09T06:58:04.685Z,101960.40
2022-08-09T07:00:54.930Z,101964.24
2022-08-09T07:03:28.060Z,101966.40
2022-08-09T07:06:04.502Z,101967.53
2022-08-09T07:08:35.319Z,101972.26
2022-08-09T07:11:07.216Z,101971.73
2022-08-09T07:13:45.025Z,101970.64
2022-08-09T07:16:41.614Z,101969.38
2022-08-09T07:19:15.794Z,101968.57
2022-08-09T07:21:57.211Z,101968.51
2022-08-09T07:24:32.082Z,101972.56
2022-08-09T07:27:02.544Z,101973.17
2022-08-09T07:29:37.687Z,101976.27
2022-08-09T07:32:07.657Z,101972.76
2022-08-09T07:34:36.978Z,101975.84
2022-08-09T07:37:06.438Z,101971.38
2022-08-09T07:39:46.451Z,101978.71
2022-08-09T07:42:16.006Z,101977.99
2022-08-09T07:44:50.850Z,101978.64
2022-08-09T07:47:39.423Z,101984.91
2022-08-09T07:50:12.331Z,101986.36
2022-08-09T07:52:43.054Z,101988.42
2022-08-09T07:55:13.002Z,101988.05
2022-08-09T07:57:48.093Z,101990.59
2022-08-09T08:00:20.456Z,101990.42
2022-08-09T08:03:08.303Z,101993.59
2022-08-09T08:05:58.050Z,101992.71
2022-08-09T08:09:00.394Z,101995.25
2022-08-09T08:12:11.088Z,101995.27
2022-08-09T08:14:07.248Z,101996.63
2022-08-09T08:16:39.705Z,101995.08
2022-08-09T08:19:20.800Z,101995.77
2022-08-09T08:21:53.269Z,102000.48
2022-08-09T08:24:22.750Z,101999.47
2022-08-09T08:26:56.430Z,101998.89
2022-08-09T08:29:27.391Z,101998.93
2022-08-09T08:32:04.432Z,102001.08
2022-08-09T08:34:36.533Z,102002.84
2022-08-09T08:37:06.636Z,102004.45
2022-08-09T08:39:47.281Z,102001.33
2022-08-09T08:42:16.746Z,101997.91
2022-08-09T08:44:46.438Z,102001.84
2022-08-09T08:47:17.560Z,102003.62
2022-08-09T08:49:49.333Z,102005.91
2022-08-09T08:55:08.883Z,102001.62
2022-08-09T08:57:38.733Z,102005.61
2022-08-09T09:00:16.989Z,102008.95
2022-08-09T09:02:52.851Z,102008.77
2022-08-09T09:05:57.832Z,102008.48
2022-08-09T09:08:29.693Z,102003.64
2022-08-09T09:11:01.388Z,102006.22
2022-08-09T09:13:41.781Z,102009.86
2022-08-09T09:16:29.641Z,102015.22
2022-08-09T09:21:50.418Z,102013.11
2022-08-09T09:24:20.850Z,102005.01
2022-08-09T09:26:51.437Z,102006.19
2022-08-09T09:29:20.886Z,102004.88
2022-08-09T09:32:06.460Z,102004.88
2022-08-09T09:34:44.718Z,102002.65
2022-08-09T09:37:14.358Z,102002.27
2022-08-09T09:39:57.050Z,102005.98
2022-08-09T09:42:30.918Z,102004.12
2022-08-09T09:45:00.524Z,102000.26
2022-08-09T09:47:30.235Z,102001.41
2022-08-09T09:50:14.279Z,101999.86
2022-08-09T09:52:53.640Z,101999.93
2022-08-09T09:55:32.490Z,101993.19
2022-08-09T09:58:17.346Z,101995.17
2022-08-09T10:00:54.707Z,101993.05
2022-08-09T10:03:25.148Z,101996.72
2022-08-09T10:06:03.329Z,101997.48
2022-08-09T10:08:42.407Z,101990.66
2022-08-09T10:11:38.070Z,101985.30
2022-08-09T10:14:02.157Z,101986.17
2022-08-09T10:16:56.755Z,101980.02
2022-08-09T10:19:20.824Z,101982.38
2022-08-09T10:21:52.892Z,101980.19
2022-08-09T10:24:25.548Z,101975.11
2022-08-09T10:27:17.006Z,101973.60
2022-08-09T10:30:48.142Z,101972.48
2022-08-09T10:32:50.319Z,101971.53
2022-08-09T10:35:20.139Z,101971.09
2022-08-09T10:37:51.757Z,101968.31
2022-08-09T10:40:33.486Z,101968.89
2022-08-09T10:43:08.131Z,101967.13
2022-08-09T10:45:49.242Z,101965.80
2022-08-09T10:48:30.666Z,101963.10
2022-08-09T10:51:13.629Z,101961.59
2022-08-09T10:53:46.925Z,101954.86
2022-08-09T10:56:24.657Z,101949.61
2022-08-09T10:58:55.068Z,101951.35
2022-08-09T11:03:15.166Z,101948.45
2022-08-09T11:04:19.761Z,101944.17
2022-08-09T11:07:00.738Z,101944.17
2022-08-09T11:09:33.674Z,101944.89
2022-08-09T11:12:07.344Z,101943.41
2022-08-09T11:14:38.507Z,101939.86
2022-08-09T11:17:07.858Z,101933.53
2022-08-09T11:20:10.043Z,101935.35
2022-08-09T11:22:26.413Z,101931.94
2022-08-09T11:24:56.015Z,101931.05
2022-08-09T11:28:03.664Z,101933.04
2022-08-09T11:30:32.427Z,101933.91
2022-08-09T11:33:03.644Z,101928.95
2022-08-09T11:35:35.142Z,101927.34
2022-08-09T11:38:19.285Z,101926.14
2022-08-09T11:40:53.011Z,101928.52
2022-08-09T11:43:24.311Z,101929.66
2022-08-09T11:45:54.105Z,101929.20
2022-08-09T11:48:27.009Z,101925.14
2022-08-09T11:52:53.696Z,101925.89
2022-08-09T11:54:01.041Z,101926.19
2022-08-09T11:56:42.832Z,101924.86
2022-08-09T11:59:17.913Z,101925.73
2022-08-09T12:02:16.264Z,101922.08
2022-08-09T12:04:37.248Z,101925.59
2022-08-09T12:07:07.929Z,101923.48
2022-08-09T12:09:38.377Z,101921.88
2022-08-09T12:12:12.840Z,101919.84
2022-08-09T12:15:08.337Z,101918.71
2022-08-09T12:17:44.868Z,101925.13
2022-08-09T12:20:21.628Z,101921.64
2022-08-09T12:22:52.068Z,101924.05
2022-08-09T12:25:36.654Z,101921.67
2022-08-09T12:29:09.977Z,101916.66
2022-08-09T12:30:58.049Z,101919.08
2022-08-09T12:33:51.011Z,101922.41
2022-08-09T12:36:31.461Z,101921.11
2022-08-09T12:39:04.226Z,101916.52
2022-08-09T12:41:39.613Z,101914.69
2022-08-09T12:44:10.294Z,101914.41
2022-08-09T12:46:49.851Z,101909.86
2022-08-09T12:49:20.927Z,101910.34
2022-08-09T12:52:00.582Z,101910.75
2022-08-09T12:54:31.624Z,101910.21
2022-08-09T12:57:01.457Z,101908.64
2022-08-09T12:59:40.032Z,101909.59
2022-08-09T13:02:20.137Z,101899.40
2022-08-09T13:04:50.553Z,101899.08
2022-08-09T13:07:28.666Z,101896.27
2022-08-09T13:10:10.536Z,101891.73
2022-08-09T13:13:10.913Z,101892.77
2022-08-09T13:15:30.411Z,101895.83
2022-08-09T13:18:05.857Z,101892.91
2022-08-09T13:21:03.775Z,101891.23
2022-08-09T13:24:07.378Z,101886.55
2022-08-09T13:26:17.402Z,101886.45
2022-08-09T13:29:01.537Z,101882.02
2022-08-09T13:32:20.168Z,101878.02
2022-08-09T13:34:20.728Z,101876.17
2022-08-09T13:36:50.109Z,101874.79
2022-08-09T13:41:51.142Z,101870.44
2022-08-09T13:42:12.116Z,101864.29
2022-08-09T13:44:42.741Z,101868.72
2022-08-09T13:47:33.598Z,101869.82
2022-08-09T13:50:02.557Z,101865.39
2022-08-09T13:52:32.475Z,101863.59
2022-08-09T13:55:05.079Z,101866.11
2022-08-09T13:57:39.556Z,101865.30
2022-08-09T14:00:09.736Z,101858.82
2022-08-09T14:02:42.821Z,101854.96
2022-08-09T14:05:57.031Z,101858.14
2022-08-09T14:08:20.846Z,101856.48
2022-08-09T14:10:52.990Z,101855.64
2022-08-09T14:14:16.198Z,101861.73
2022-08-09T14:16:14.080Z,101861.27
2022-08-09T14:18:45.942Z,101859.39
2022-08-09T14:21:20.416Z,101862.50
2022-08-09T14:23:54.017Z,101865.98
2022-08-09T14:26:32.890Z,101867.92
2022-08-09T14:29:03.076Z,101872.46
2022-08-09T14:31:36.028Z,101872.50
2022-08-09T14:34:31.068Z,101877.55
2022-08-09T14:37:02.371Z,101875.88
2022-08-09T14:39:45.917Z,101871.54
2022-08-09T14:42:31.744Z,101872.15
2022-08-09T14:46:45.915Z,101871.36
2022-08-09T14:47:57.573Z,101867.56
2022-08-09T14:50:30.444Z,101863.08
2022-08-09T14:53:00.603Z,101861.30
2022-08-09T14:55:32.763Z,101862.41
2022-08-09T14:58:03.304Z,101862.05
2022-08-09T15:00:33.489Z,101861.45
2022-08-09T15:03:03.893Z,101863.19
2022-08-09T15:05:33.723Z,101859.21
2022-08-09T15:08:03.057Z,101856.44
2022-08-09T15:10:32.937Z,101856.70
2022-08-09T15:13:02.974Z,101855.10
2022-08-09T15:15:34.350Z,101854.40
2022-08-09T15:18:12.493Z,101851.48
2022-08-09T15:21:57.307Z,101848.91
2022-08-09T15:24:02.619Z,101849.16
2022-08-09T15:26:31.181Z,101843.24
2022-08-09T15:29:02.433Z,101843.73
2022-08-09T15:31:41.712Z,101840.93
2022-08-09T15:34:32.123Z,101836.66
2022-08-09T15:37:04.310Z,101837.14
2022-08-09T15:39:43.699Z,101842.67
2022-08-09T15:42:22.792Z,101846.48
2022-08-09T15:44:52.191Z,101843.38
2022-08-09T15:47:22.691Z,101847.95
2022-08-09T15:50:03.876Z,101842.69
2022-08-09T15:52:35.544Z,101838.41
2022-08-09T15:55:05.374Z,101838.92
2022-08-09T15:57:44.548Z,101844.48
2022-08-09T16:00:25.750Z,101843.34
2022-08-09T16:02:56.664Z,101851.20
2022-08-09T16:05:26.816Z,101846.97
2022-08-09T16:08:30.770Z,101853.98
2022-08-09T16:11:01.994Z,101858.41
2022-08-09T16:14:04.192Z,101854.73
2022-08-09T16:16:26.303Z,101856.38
2022-08-09T16:18:58.004Z,101856.16
2022-08-09T16:21:31.664Z,101853.45
2022-08-09T16:24:05.105Z,101856.42
2022-08-09T16:26:38.430Z,101852.02
2022-08-09T16:29:12.265Z,101851.54
2022-08-09T16:32:18.317Z,101853.70
2022-08-09T16:34:55.743Z,101849.66
2022-08-09T16:37:53.769Z,101852.20
2022-08-09T16:40:10.141Z,101852.51
2022-08-09T16:42:44.825Z,101851.91
2022-08-09T16:45:14.958Z,101849.65
2022-08-09T16:48:39.566Z,101850.52
2022-08-09T16:50:38.133Z,101851.65
2022-08-09T16:53:08.822Z,101852.63
2022-08-09T16:55:57.881Z,101853.48
2022-08-09T16:58:28.317Z,101854.77
2022-08-09T17:01:05.377Z,101857.90
2022-08-09T17:03:34.795Z,101860.73
2022-08-09T17:06:28.378Z,101860.63
2022-08-09T17:09:03.070Z,101864.14
2022-08-09T17:11:43.108Z,101869.28
2022-08-09T17:14:26.260Z,101868.33
2022-08-09T17:16:59.783Z,101871.39
2022-08-09T17:20:04.915Z,101869.95
2022-08-09T17:22:28.637Z,101870.17
2022-08-09T17:25:09.757Z,101869.65
2022-08-09T17:27:49.527Z,101873.64
2022-08-09T17:30:25.853Z,101875.05
2022-08-09T17:32:57.536Z,101873.23
2022-08-09T17:35:31.149Z,101874.78
2022-08-09T17:38:12.905Z,101874.77
2022-08-09T17:40:50.817Z,101881.52
2022-08-09T17:43:34.103Z,101877.23
2022-08-09T17:46:06.695Z,101880.34
2022-08-09T17:48:39.379Z,101882.31
2022-08-09T17:51:18.026Z,101883.62
2022-08-09T17:53:52.450Z,101885.16
2022-08-09T17:56:27.966Z,101888.95
2022-08-09T17:58:57.863Z,101889.41
2022-08-09T18:02:03.430Z,101891.63
2022-08-09T18:04:16.630Z,101894.18
2022-08-09T18:06:54.041Z,101892.37
2022-08-09T18:09:41.071Z,101895.72
2022-08-09T18:12:17.917Z,101896.14
2022-08-09T18:14:54.480Z,101896.45
2022-08-09T18:17:27.698Z,101901.41
2022-08-09T18:20:55.739Z,101900.53
2022-08-09T18:23:05.262Z,101907.09
2022-08-09T18:25:52.903Z,101907.66
2022-08-09T18:30:42.691Z,101910.30
2022-08-09T18:31:13.196Z,101911.73
2022-08-09T18:33:46.326Z,101917.03
2022-08-09T18:36:25.779Z,101921.33
2022-08-09T18:39:02.776Z,101922.43
2022-08-09T18:41:34.680Z,101923.02
2022-08-09T18:44:13.215Z,101922.94
2022-08-09T18:46:47.767Z,101927.23
2022-08-09T18:49:21.235Z,101930.42
2022-08-09T18:51:55.211Z,101935.21
2022-08-09T18:54:28.653Z,101938.20
2022-08-09T18:57:05.163Z,101943.37
2022-08-09T18:59:37.210Z,101947.31
2022-08-09T19:02:14.903Z,101948.63
2022-08-09T19:04:48.103Z,101949.15
2022-08-09T19:07:33.266Z,101948.41
2022-08-09T19:10:14.709Z,101945.89
2022-08-09T19:13:04.663Z,101947.35
2022-08-09T19:15:36.449Z,101950.95
2022-08-09T19:18:05.662Z,101954.30
2022-08-09T19:20:36.873Z,101959.10
2022-08-09T19:23:08.852Z,101955.64
2022-08-09T19:26:00.894Z,101956.80
2022-08-09T19:28:32.596Z,101957.56
2022-08-09T19:31:01.808Z,101960.60
2022-08-09T19:33:37.276Z,101962.50
2022-08-09T19:36:07.161Z,101963.06
2022-08-09T19:38:41.448Z,101958.33
2022-08-09T19:41:12.363Z,101956.50
2022-08-09T19:44:03.172Z,101959.55
2022-08-09T19:46:35.700Z,101959.13
2022-08-09T19:50:06.718Z,101959.45
2022-08-09T19:52:12.313Z,101961.90
2022-08-09T19:54:41.814Z,101965.23
2022-08-09T19:57:11.593Z,101965.35
2022-08-09T20:00:05.586Z,101966.12
2022-08-09T20:04:23.874Z,101967.96
2022-08-09T20:05:29.695Z,101968.09
2022-08-09T20:08:16.167Z,101973.90
2022-08-09T20:10:56.394Z,101974.26
2022-08-09T20:13:27.158Z,101976.06
2022-08-09T20:16:34.929Z,101979.40
2022-08-09T20:19:04.010Z,101982.55
2022-08-09T20:21:54.801Z,101984.08
2022-08-09T20:24:31.787Z,101983.79
2022-08-09T20:27:08.473Z,101983.80
2022-08-09T20:29:39.024Z,101984.45
2022-08-09T20:32:28.879Z,101984.86
2022-08-09T20:34:57.808Z,101989.29
2022-08-09T20:38:18.756Z,101991.33
2022-08-09T20:40:26.336Z,101993.40
2022-08-09T20:43:12.086Z,101986.02
2022-08-09T20:45:59.497Z,101983.89
2022-08-09T20:48:32.120Z,101984.16
2022-08-09T20:51:02.952Z,101977.08
2022-08-09T20:53:37.094Z,101973.42
2022-08-09T20:56:08.913Z,101978.04
2022-08-09T20:58:38.635Z,101979.21
2022-08-09T21:01:33.054Z,101977.48
2022-08-09T21:05:53.797Z,101981.83
2022-08-09T21:07:11.658Z,101980.64
2022-08-09T21:09:55.248Z,101988.85
2022-08-09T21:15:17.491Z,101991.68
2022-08-09T21:18:25.379Z,101999.75
2022-08-09T21:20:43.480Z,102001.21
2022-08-09T21:23:19.608Z,101999.12
2022-08-09T21:25:56.327Z,101997.09
2022-08-09T21:28:34.913Z,101999.66
2022-08-09T21:31:18.146Z,102001.48
2022-08-09T21:33:51.716Z,102004.91
2022-08-09T21:36:23.102Z,102006.65
2022-08-09T21:38:57.535Z,102010.65
2022-08-09T21:42:05.526Z,102011.98
2022-08-09T21:44:33.341Z,102012.06
2022-08-09T21:47:04.981Z,102008.66
2022-08-09T21:49:40.301Z,102009.21
2022-08-09T21:52:15.011Z,102014.65
2022-08-09T21:54:51.014Z,102012.36
2022-08-09T21:57:39.513Z,102014.48
2022-08-09T22:00:25.341Z,102013.05
2022-08-09T22:02:58.487Z,102013.94
2022-08-09T22:05:36.799Z,102017.34
2022-08-09T22:08:06.510Z,102015.86
2022-08-09T22:10:35.658Z,102023.21
2022-08-09T22:13:24.980Z,102025.95
2022-08-09T22:16:00.971Z,102024.77
2022-08-09T22:18:33.228Z,102028.70
2022-08-09T22:21:02.833Z,102029.02
2022-08-09T22:23:59.548Z,102025.93
2022-08-09T22:26:34.906Z,102024.41
2022-08-09T22:29:09.522Z,102024.61
2022-08-09T22:31:50.615Z,102024.73
2022-08-09T22:34:26.891Z,102024.20
2022-08-09T22:36:56.568Z,102020.46
2022-08-09T22:39:57.198Z,102020.23
2022-08-09T22:42:20.774Z,102023.64
2022-08-09T22:48:04.505Z,102019.16
2022-08-09T22:48:11.847Z,102021.61
2022-08-09T22:50:31.178Z,102020.95
2022-08-09T22:53:03.799Z,102020.43
2022-08-09T22:56:06.243Z,102025.91
2022-08-09T22:58:32.282Z,102028.54
2022-08-09T23:01:03.580Z,102028.94
2022-08-09T23:04:04.452Z,102031.63
2022-08-09T23:06:34.820Z,102031.10
2022-08-09T23:09:06.286Z,102030.85
2022-08-09T23:11:35.745Z,102028.69
2022-08-09T23:14:09.115Z,102031.19
2022-08-09T23:16:39.894Z,102028.89
2022-08-09T23:19:09.196Z,102031.23
2022-08-09T23:21:38.643Z,102030.09
2022-08-09T23:24:09.102Z,102026.90
2022-08-09T23:26:38.367Z,102023.14
2022-08-09T23:29:08.073Z,102024.46
2022-08-09T23:31:37.424Z,102026.92
2022-08-09T23:34:06.746Z,102025.00
2022-08-09T23:36:36.591Z,102026.00
2022-08-09T23:39:06.622Z,102028.75
2022-08-09T23:41:36.311Z,102031.66
2022-08-09T23:44:05.758Z,102029.76
2022-08-09T23:46:35.208Z,102035.87
2022-08-09T23:49:04.538Z,102034.02
2022-08-09T23:51:33.977Z,102034.48
2022-08-09T23:54:03.703Z,102033.58
2022-08-09T23:56:52.691Z,102036.27
2022-08-09T23:59:22.803Z,102033.74
